sensor_id;sensor_type;location;lat;lon;timestamp;temperature;humidity
69281;SHT31;56392;51.082;17.080;2022-08-19T00:01:34;25.78;60.69
69281;SHT31;56392;51.082;17.080;2022-08-19T00:06:40;25.73;61.00
69281;SHT31;56392;51.082;17.080;2022-08-19T00:11:44;25.70;61.41
69281;SHT31;56392;51.082;17.080;2022-08-19T00:16:47;25.61;61.26
69281;SHT31;56392;51.082;17.080;2022-08-19T00:21:52;25.37;61.49
69281;SHT31;56392;51.082;17.080;2022-08-19T00:26:56;25.03;62.29
69281;SHT31;56392;51.082;17.080;2022-08-19T00:31:58;24.95;62.36
69281;SHT31;56392;51.082;17.080;2022-08-19T00:37:02;24.85;62.73
69281;SHT31;56392;51.082;17.080;2022-08-19T00:42:05;24.79;62.76
69281;SHT31;56392;51.082;17.080;2022-08-19T00:47:08;24.69;62.96
69281;SHT31;56392;51.082;17.080;2022-08-19T00:52:16;24.80;63.15
69281;SHT31;56392;51.082;17.080;2022-08-19T00:57:25;24.97;63.40
69281;SHT31;56392;51.082;17.080;2022-08-19T01:02:29;24.92;63.96
69281;SHT31;56392;51.082;17.080;2022-08-19T01:07:34;24.75;64.92
69281;SHT31;56392;51.082;17.080;2022-08-19T01:12:38;24.71;64.74
69281;SHT31;56392;51.082;17.080;2022-08-19T01:17:42;24.59;64.76
69281;SHT31;56392;51.082;17.080;2022-08-19T01:22:48;24.41;65.19
69281;SHT31;56392;51.082;17.080;2022-08-19T01:27:51;24.39;65.01
69281;SHT31;56392;51.082;17.080;2022-08-19T01:32:54;24.34;64.59
69281;SHT31;56392;51.082;17.080;2022-08-19T01:38:02;24.45;64.21
69281;SHT31;56392;51.082;17.080;2022-08-19T01:43:08;24.51;64.06
69281;SHT31;56392;51.082;17.080;2022-08-19T01:48:11;24.51;64.04
69281;SHT31;56392;51.082;17.080;2022-08-19T01:53:15;24.39;64.27
69281;SHT31;56392;51.082;17.080;2022-08-19T01:58:20;24.21;64.65
69281;SHT31;56392;51.082;17.080;2022-08-19T02:03:23;24.25;64.46
69281;SHT31;56392;51.082;17.080;2022-08-19T02:08:27;24.18;64.94
69281;SHT31;56392;51.082;17.080;2022-08-19T02:13:31;24.06;65.03
69281;SHT31;56392;51.082;17.080;2022-08-19T02:18:33;24.13;64.77
69281;SHT31;56392;51.082;17.080;2022-08-19T02:23:37;24.15;64.58
69281;SHT31;56392;51.082;17.080;2022-08-19T02:28:40;24.03;65.20
69281;SHT31;56392;51.082;17.080;2022-08-19T02:33:44;24.01;65.21
69281;SHT31;56392;51.082;17.080;2022-08-19T02:38:48;24.01;65.25
69281;SHT31;56392;51.082;17.080;2022-08-19T02:43:51;23.87;65.63
69281;SHT31;56392;51.082;17.080;2022-08-19T02:48:56;23.74;65.89
69281;SHT31;56392;51.082;17.080;2022-08-19T02:54:01;23.70;67.31
69281;SHT31;56392;51.082;17.080;2022-08-19T02:59:05;23.66;66.91
69281;SHT31;56392;51.082;17.080;2022-08-19T03:04:11;23.60;66.83
69281;SHT31;56392;51.082;17.080;2022-08-19T03:09:16;23.59;67.19
69281;SHT31;56392;51.082;17.080;2022-08-19T03:14:18;23.47;67.64
69281;SHT31;56392;51.082;17.080;2022-08-19T03:19:21;23.41;67.48
69281;SHT31;56392;51.082;17.080;2022-08-19T03:24:25;23.38;67.76
69281;SHT31;56392;51.082;17.080;2022-08-19T03:29:29;23.27;67.90
69281;SHT31;56392;51.082;17.080;2022-08-19T03:34:34;23.23;68.03
69281;SHT31;56392;51.082;17.080;2022-08-19T03:39:40;23.09;68.95
69281;SHT31;56392;51.082;17.080;2022-08-19T03:44:43;23.01;69.79
69281;SHT31;56392;51.082;17.080;2022-08-19T03:49:46;22.91;70.41
69281;SHT31;56392;51.082;17.080;2022-08-19T03:54:50;22.84;70.32
69281;SHT31;56392;51.082;17.080;2022-08-19T03:59:53;22.90;69.83
69281;SHT31;56392;51.082;17.080;2022-08-19T04:04:55;22.96;69.58
69281;SHT31;56392;51.082;17.080;2022-08-19T04:09:59;23.01;69.30
69281;SHT31;56392;51.082;17.080;2022-08-19T04:15:02;22.77;70.24
69281;SHT31;56392;51.082;17.080;2022-08-19T04:20:06;22.92;69.61
69281;SHT31;56392;51.082;17.080;2022-08-19T04:25:11;23.14;69.02
69281;SHT31;56392;51.082;17.080;2022-08-19T04:30:14;23.23;68.72
69281;SHT31;56392;51.082;17.080;2022-08-19T04:35:18;23.41;68.29
69281;SHT31;56392;51.082;17.080;2022-08-19T04:40:22;23.46;68.41
69281;SHT31;56392;51.082;17.080;2022-08-19T04:45:42;23.53;68.36
69281;SHT31;56392;51.082;17.080;2022-08-19T04:50:45;23.69;67.93
69281;SHT31;56392;51.082;17.080;2022-08-19T04:55:50;23.76;67.89
69281;SHT31;56392;51.082;17.080;2022-08-19T05:00:53;23.84;67.92
69281;SHT31;56392;51.082;17.080;2022-08-19T05:05:56;23.83;68.46
69281;SHT31;56392;51.082;17.080;2022-08-19T05:11:00;23.88;68.78
69281;SHT31;56392;51.082;17.080;2022-08-19T05:16:04;24.20;68.33
69281;SHT31;56392;51.082;17.080;2022-08-19T05:21:07;24.51;67.47
69281;SHT31;56392;51.082;17.080;2022-08-19T05:26:29;24.87;66.25
69281;SHT31;56392;51.082;17.080;2022-08-19T05:31:31;25.24;65.57
69281;SHT31;56392;51.082;17.080;2022-08-19T05:36:36;25.40;64.56
69281;SHT31;56392;51.082;17.080;2022-08-19T05:41:42;25.48;64.25
69281;SHT31;56392;51.082;17.080;2022-08-19T05:46:45;25.74;63.85
69281;SHT31;56392;51.082;17.080;2022-08-19T05:51:49;25.82;63.74
69281;SHT31;56392;51.082;17.080;2022-08-19T05:56:53;25.95;63.63
69281;SHT31;56392;51.082;17.080;2022-08-19T06:01:56;26.09;63.14
69281;SHT31;56392;51.082;17.080;2022-08-19T06:06:59;26.55;61.93
69281;SHT31;56392;51.082;17.080;2022-08-19T06:12:04;26.72;61.84
69281;SHT31;56392;51.082;17.080;2022-08-19T06:17:08;27.27;60.70
69281;SHT31;56392;51.082;17.080;2022-08-19T06:22:11;27.68;59.03
69281;SHT31;56392;51.082;17.080;2022-08-19T06:27:15;28.07;58.42
69281;SHT31;56392;51.082;17.080;2022-08-19T06:32:18;28.53;58.06
69281;SHT31;56392;51.082;17.080;2022-08-19T06:37:20;29.04;56.64
69281;SHT31;56392;51.082;17.080;2022-08-19T06:42:25;29.59;55.91
69281;SHT31;56392;51.082;17.080;2022-08-19T06:47:28;29.87;54.28
69281;SHT31;56392;51.082;17.080;2022-08-19T06:52:33;29.91;53.63
69281;SHT31;56392;51.082;17.080;2022-08-19T06:57:37;30.69;53.30
69281;SHT31;56392;51.082;17.080;2022-08-19T07:02:40;31.73;50.40
69281;SHT31;56392;51.082;17.080;2022-08-19T07:07:42;32.24;48.58
69281;SHT31;56392;51.082;17.080;2022-08-19T07:12:46;31.78;49.34
69281;SHT31;56392;51.082;17.080;2022-08-19T07:17:51;33.34;47.13
69281;SHT31;56392;51.082;17.080;2022-08-19T07:22:54;34.73;44.05
69281;SHT31;56392;51.082;17.080;2022-08-19T07:27:59;36.32;40.15
69281;SHT31;56392;51.082;17.080;2022-08-19T07:38:18;38.55;35.58
69281;SHT31;56392;51.082;17.080;2022-08-19T07:43:25;39.08;34.43
69281;SHT31;56392;51.082;17.080;2022-08-19T07:48:28;39.33;34.97
69281;SHT31;56392;51.082;17.080;2022-08-19T07:53:32;39.92;34.02
69281;SHT31;56392;51.082;17.080;2022-08-19T07:58:38;40.05;32.93
69281;SHT31;56392;51.082;17.080;2022-08-19T08:03:42;41.13;30.70
69281;SHT31;56392;51.082;17.080;2022-08-19T08:09:03;43.03;29.02
69281;SHT31;56392;51.082;17.080;2022-08-19T08:14:22;45.38;26.03
69281;SHT31;56392;51.082;17.080;2022-08-19T08:19:26;47.48;24.94
69281;SHT31;56392;51.082;17.080;2022-08-19T08:24:31;48.06;25.17
69281;SHT31;56392;51.082;17.080;2022-08-19T08:29:36;46.46;25.36
69281;SHT31;56392;51.082;17.080;2022-08-19T08:34:39;49.92;21.84
69281;SHT31;56392;51.082;17.080;2022-08-19T08:39:41;44.09;26.06
69281;SHT31;56392;51.082;17.080;2022-08-19T08:44:52;41.19;29.87
69281;SHT31;56392;51.082;17.080;2022-08-19T08:49:59;45.37;25.64
69281;SHT31;56392;51.082;17.080;2022-08-19T08:55:09;48.20;22.58
69281;SHT31;56392;51.082;17.080;2022-08-19T09:00:17;50.35;20.98
69281;SHT31;56392;51.082;17.080;2022-08-19T09:05:20;51.49;20.20
69281;SHT31;56392;51.082;17.080;2022-08-19T09:10:29;52.01;19.77
69281;SHT31;56392;51.082;17.080;2022-08-19T09:15:39;51.31;19.94
69281;SHT31;56392;51.082;17.080;2022-08-19T09:20:42;50.66;20.59
69281;SHT31;56392;51.082;17.080;2022-08-19T09:25:45;50.45;20.14
69281;SHT31;56392;51.082;17.080;2022-08-19T09:30:51;46.39;23.78
69281;SHT31;56392;51.082;17.080;2022-08-19T09:36:02;43.38;26.84
69281;SHT31;56392;51.082;17.080;2022-08-19T09:41:09;41.61;28.35
69281;SHT31;56392;51.082;17.080;2022-08-19T09:46:16;43.60;27.23
69281;SHT31;56392;51.082;17.080;2022-08-19T09:51:21;45.21;24.70
69281;SHT31;56392;51.082;17.080;2022-08-19T09:56:28;44.77;25.18
69281;SHT31;56392;51.082;17.080;2022-08-19T10:01:32;46.70;22.88
69281;SHT31;56392;51.082;17.080;2022-08-19T10:06:37;45.25;24.33
69281;SHT31;56392;51.082;17.080;2022-08-19T10:11:41;42.15;27.16
69281;SHT31;56392;51.082;17.080;2022-08-19T10:16:45;40.54;29.10
69281;SHT31;56392;51.082;17.080;2022-08-19T10:21:53;39.82;29.52
69281;SHT31;56392;51.082;17.080;2022-08-19T10:26:56;39.32;30.45
69281;SHT31;56392;51.082;17.080;2022-08-19T10:32:02;38.91;30.95
69281;SHT31;56392;51.082;17.080;2022-08-19T10:37:05;38.10;31.31
69281;SHT31;56392;51.082;17.080;2022-08-19T10:42:08;37.73;31.78
69281;SHT31;56392;51.082;17.080;2022-08-19T10:47:13;37.89;32.14
69281;SHT31;56392;51.082;17.080;2022-08-19T10:52:15;37.69;32.30
69281;SHT31;56392;51.082;17.080;2022-08-19T10:57:36;37.99;32.65
69281;SHT31;56392;51.082;17.080;2022-08-19T11:02:40;37.94;31.69
69281;SHT31;56392;51.082;17.080;2022-08-19T11:07:44;37.17;33.02
69281;SHT31;56392;51.082;17.080;2022-08-19T11:12:47;36.47;33.54
69281;SHT31;56392;51.082;17.080;2022-08-19T11:17:52;36.33;34.51
69281;SHT31;56392;51.082;17.080;2022-08-19T11:22:57;36.37;35.00
69281;SHT31;56392;51.082;17.080;2022-08-19T11:27:59;36.19;34.76
69281;SHT31;56392;51.082;17.080;2022-08-19T11:33:03;35.96;35.96
69281;SHT31;56392;51.082;17.080;2022-08-19T11:38:06;35.88;35.66
69281;SHT31;56392;51.082;17.080;2022-08-19T11:43:08;35.54;36.25
69281;SHT31;56392;51.082;17.080;2022-08-19T11:48:12;35.23;36.06
69281;SHT31;56392;51.082;17.080;2022-08-19T11:53:15;35.26;35.49
69281;SHT31;56392;51.082;17.080;2022-08-19T11:58:22;35.21;35.79
69281;SHT31;56392;51.082;17.080;2022-08-19T12:03:27;35.24;34.46
69281;SHT31;56392;51.082;17.080;2022-08-19T12:08:30;35.01;33.88
69281;SHT31;56392;51.082;17.080;2022-08-19T12:13:34;34.83;33.94
69281;SHT31;56392;51.082;17.080;2022-08-19T12:18:39;34.69;33.51
69281;SHT31;56392;51.082;17.080;2022-08-19T12:23:43;34.52;33.46
69281;SHT31;56392;51.082;17.080;2022-08-19T12:28:46;34.40;33.76
69281;SHT31;56392;51.082;17.080;2022-08-19T12:33:50;34.33;33.91
69281;SHT31;56392;51.082;17.080;2022-08-19T12:38:54;34.39;34.88
69281;SHT31;56392;51.082;17.080;2022-08-19T12:43:57;34.39;36.25
69281;SHT31;56392;51.082;17.080;2022-08-19T12:49:01;34.26;36.40
69281;SHT31;56392;51.082;17.080;2022-08-19T12:54:04;34.31;36.42
69281;SHT31;56392;51.082;17.080;2022-08-19T12:59:08;34.16;36.37
69281;SHT31;56392;51.082;17.080;2022-08-19T13:04:13;33.88;37.19
69281;SHT31;56392;51.082;17.080;2022-08-19T13:09:16;33.74;37.02
69281;SHT31;56392;51.082;17.080;2022-08-19T13:14:19;33.74;36.03
69281;SHT31;56392;51.082;17.080;2022-08-19T13:19:23;33.68;36.22
69281;SHT31;56392;51.082;17.080;2022-08-19T13:24:26;33.69;36.14
69281;SHT31;56392;51.082;17.080;2022-08-19T13:29:28;33.61;36.13
69281;SHT31;56392;51.082;17.080;2022-08-19T13:34:53;33.53;36.21
69281;SHT31;56392;51.082;17.080;2022-08-19T13:39:56;33.53;36.10
69281;SHT31;56392;51.082;17.080;2022-08-19T13:45:00;33.51;36.53
69281;SHT31;56392;51.082;17.080;2022-08-19T13:50:05;33.58;36.37
69281;SHT31;56392;51.082;17.080;2022-08-19T13:55:10;33.68;36.65
69281;SHT31;56392;51.082;17.080;2022-08-19T14:00:17;33.65;36.95
69281;SHT31;56392;51.082;17.080;2022-08-19T14:05:22;33.65;37.12
69281;SHT31;56392;51.082;17.080;2022-08-19T14:10:25;33.59;38.33
69281;SHT31;56392;51.082;17.080;2022-08-19T14:15:28;33.62;39.98
69281;SHT31;56392;51.082;17.080;2022-08-19T14:20:34;33.57;39.90
69281;SHT31;56392;51.082;17.080;2022-08-19T14:25:37;33.43;40.66
69281;SHT31;56392;51.082;17.080;2022-08-19T14:30:40;33.35;43.95
69281;SHT31;56392;51.082;17.080;2022-08-19T14:35:44;33.17;40.81
69281;SHT31;56392;51.082;17.080;2022-08-19T14:40:47;33.10;42.15
69281;SHT31;56392;51.082;17.080;2022-08-19T14:45:50;33.07;44.29
69281;SHT31;56392;51.082;17.080;2022-08-19T14:50:54;33.04;43.42
69281;SHT31;56392;51.082;17.080;2022-08-19T14:55:56;32.87;45.71
69281;SHT31;56392;51.082;17.080;2022-08-19T15:00:59;32.68;45.01
69281;SHT31;56392;51.082;17.080;2022-08-19T15:06:05;32.53;45.21
69281;SHT31;56392;51.082;17.080;2022-08-19T15:11:08;32.42;44.15
69281;SHT31;56392;51.082;17.080;2022-08-19T15:16:12;32.29;44.68
69281;SHT31;56392;51.082;17.080;2022-08-19T15:21:17;32.12;44.80
69281;SHT31;56392;51.082;17.080;2022-08-19T15:26:20;32.11;44.79
69281;SHT31;56392;51.082;17.080;2022-08-19T15:31:22;32.05;44.71
69281;SHT31;56392;51.082;17.080;2022-08-19T15:36:27;31.92;46.35
69281;SHT31;56392;51.082;17.080;2022-08-19T15:41:30;31.74;47.43
69281;SHT31;56392;51.082;17.080;2022-08-19T15:46:38;31.49;48.02
69281;SHT31;56392;51.082;17.080;2022-08-19T15:51:45;31.31;48.57
69281;SHT31;56392;51.082;17.080;2022-08-19T15:56:48;31.16;49.11
69281;SHT31;56392;51.082;17.080;2022-08-19T16:02:09;31.08;50.01
69281;SHT31;56392;51.082;17.080;2022-08-19T16:07:30;30.89;51.04
69281;SHT31;56392;51.082;17.080;2022-08-19T16:12:33;30.68;50.63
69281;SHT31;56392;51.082;17.080;2022-08-19T16:17:36;30.52;50.67
69281;SHT31;56392;51.082;17.080;2022-08-19T16:22:40;30.37;53.06
69281;SHT31;56392;51.082;17.080;2022-08-19T16:27:43;30.16;54.57
69281;SHT31;56392;51.082;17.080;2022-08-19T16:32:46;30.07;55.75
69281;SHT31;56392;51.082;17.080;2022-08-19T16:37:50;29.94;54.85
69281;SHT31;56392;51.082;17.080;2022-08-19T16:42:53;29.79;55.65
69281;SHT31;56392;51.082;17.080;2022-08-19T16:47:56;29.76;56.31
69281;SHT31;56392;51.082;17.080;2022-08-19T16:53:00;29.67;58.07
69281;SHT31;56392;51.082;17.080;2022-08-19T16:58:03;29.49;58.99
69281;SHT31;56392;51.082;17.080;2022-08-19T17:03:06;29.33;58.99
69281;SHT31;56392;51.082;17.080;2022-08-19T17:08:12;29.19;59.81
69281;SHT31;56392;51.082;17.080;2022-08-19T17:13:16;28.99;60.12
69281;SHT31;56392;51.082;17.080;2022-08-19T17:18:18;28.90;59.79
69281;SHT31;56392;51.082;17.080;2022-08-19T17:23:24;28.71;59.91
69281;SHT31;56392;51.082;17.080;2022-08-19T17:28:28;28.64;61.10
69281;SHT31;56392;51.082;17.080;2022-08-19T17:33:31;28.48;61.97
69281;SHT31;56392;51.082;17.080;2022-08-19T17:38:35;28.37;62.71
69281;SHT31;56392;51.082;17.080;2022-08-19T17:43:39;28.30;63.12
69281;SHT31;56392;51.082;17.080;2022-08-19T17:48:47;28.20;62.96
69281;SHT31;56392;51.082;17.080;2022-08-19T17:53:53;28.23;61.61
69281;SHT31;56392;51.082;17.080;2022-08-19T17:58:57;28.16;62.10
69281;SHT31;56392;51.082;17.080;2022-08-19T18:03:59;28.17;62.71
69281;SHT31;56392;51.082;17.080;2022-08-19T18:09:09;28.14;61.76
69281;SHT31;56392;51.082;17.080;2022-08-19T18:14:14;28.12;62.84
69281;SHT31;56392;51.082;17.080;2022-08-19T18:19:17;28.02;62.10
69281;SHT31;56392;51.082;17.080;2022-08-19T18:24:21;27.95;61.87
69281;SHT31;56392;51.082;17.080;2022-08-19T18:29:24;27.89;61.56
69281;SHT31;56392;51.082;17.080;2022-08-19T18:34:26;27.88;62.56
69281;SHT31;56392;51.082;17.080;2022-08-19T18:39:33;27.88;62.35
69281;SHT31;56392;51.082;17.080;2022-08-19T18:44:57;27.82;62.92
69281;SHT31;56392;51.082;17.080;2022-08-19T18:50:23;27.70;62.09
69281;SHT31;56392;51.082;17.080;2022-08-19T18:55:40;27.75;61.19
69281;SHT31;56392;51.082;17.080;2022-08-19T19:00:54;27.65;61.20
69281;SHT31;56392;51.082;17.080;2022-08-19T19:05:57;27.69;61.41
69281;SHT31;56392;51.082;17.080;2022-08-19T19:11:04;27.72;61.60
69281;SHT31;56392;51.082;17.080;2022-08-19T19:16:07;27.68;61.90
69281;SHT31;56392;51.082;17.080;2022-08-19T19:21:12;27.52;62.02
69281;SHT31;56392;51.082;17.080;2022-08-19T19:26:16;27.51;61.85
69281;SHT31;56392;51.082;17.080;2022-08-19T19:31:21;27.52;63.35
69281;SHT31;56392;51.082;17.080;2022-08-19T19:36:28;27.35;63.70
69281;SHT31;56392;51.082;17.080;2022-08-19T19:41:32;27.35;63.81
69281;SHT31;56392;51.082;17.080;2022-08-19T19:46:38;27.18;63.67
69281;SHT31;56392;51.082;17.080;2022-08-19T19:51:43;27.08;63.78
69281;SHT31;56392;51.082;17.080;2022-08-19T19:56:47;26.67;65.48
69281;SHT31;56392;51.082;17.080;2022-08-19T20:01:50;26.49;66.17
69281;SHT31;56392;51.082;17.080;2022-08-19T20:06:53;26.40;67.14
69281;SHT31;56392;51.082;17.080;2022-08-19T20:11:57;26.22;67.38
69281;SHT31;56392;51.082;17.080;2022-08-19T20:17:01;25.95;68.15
69281;SHT31;56392;51.082;17.080;2022-08-19T20:22:06;25.71;68.83
69281;SHT31;56392;51.082;17.080;2022-08-19T20:27:10;25.66;68.57
69281;SHT31;56392;51.082;17.080;2022-08-19T20:32:13;25.66;68.60
69281;SHT31;56392;51.082;17.080;2022-08-19T20:37:15;25.60;68.67
69281;SHT31;56392;51.082;17.080;2022-08-19T20:42:19;25.60;68.98
69281;SHT31;56392;51.082;17.080;2022-08-19T20:47:22;25.37;70.73
69281;SHT31;56392;51.082;17.080;2022-08-19T20:52:25;25.23;70.81
69281;SHT31;56392;51.082;17.080;2022-08-19T20:57:29;24.93;72.32
69281;SHT31;56392;51.082;17.080;2022-08-19T21:02:32;24.68;72.99
69281;SHT31;56392;51.082;17.080;2022-08-19T21:07:34;24.80;72.22
69281;SHT31;56392;51.082;17.080;2022-08-19T21:12:38;24.72;72.23
69281;SHT31;56392;51.082;17.080;2022-08-19T21:17:44;24.86;71.97
69281;SHT31;56392;51.082;17.080;2022-08-19T21:22:48;24.96;72.08
69281;SHT31;56392;51.082;17.080;2022-08-19T21:27:52;25.02;72.24
69281;SHT31;56392;51.082;17.080;2022-08-19T21:32:55;25.06;71.26
69281;SHT31;56392;51.082;17.080;2022-08-19T21:37:58;24.95;71.89
69281;SHT31;56392;51.082;17.080;2022-08-19T21:43:03;24.79;72.23
69281;SHT31;56392;51.082;17.080;2022-08-19T21:48:06;24.61;72.47
69281;SHT31;56392;51.082;17.080;2022-08-19T21:53:10;24.64;72.55
69281;SHT31;56392;51.082;17.080;2022-08-19T21:58:13;24.73;72.38
69281;SHT31;56392;51.082;17.080;2022-08-19T22:03:17;24.71;72.50
69281;SHT31;56392;51.082;17.080;2022-08-19T22:08:19;24.66;73.43
69281;SHT31;56392;51.082;17.080;2022-08-19T22:13:23;24.61;73.78
69281;SHT31;56392;51.082;17.080;2022-08-19T22:18:26;24.37;74.38
69281;SHT31;56392;51.082;17.080;2022-08-19T22:23:29;24.31;74.21
69281;SHT31;56392;51.082;17.080;2022-08-19T22:28:32;24.28;74.64
69281;SHT31;56392;51.082;17.080;2022-08-19T22:33:35;24.17;74.92
69281;SHT31;56392;51.082;17.080;2022-08-19T22:38:38;24.08;75.08
69281;SHT31;56392;51.082;17.080;2022-08-19T22:43:42;23.97;75.69
69281;SHT31;56392;51.082;17.080;2022-08-19T22:48:47;23.86;75.76
69281;SHT31;56392;51.082;17.080;2022-08-19T22:53:49;23.76;76.04
69281;SHT31;56392;51.082;17.080;2022-08-19T22:58:53;23.80;75.75
69281;SHT31;56392;51.082;17.080;2022-08-19T23:03:56;23.78;75.80
69281;SHT31;56392;51.082;17.080;2022-08-19T23:08:59;23.70;76.00
69281;SHT31;56392;51.082;17.080;2022-08-19T23:14:04;23.59;76.42
69281;SHT31;56392;51.082;17.080;2022-08-19T23:19:08;23.36;77.08
69281;SHT31;56392;51.082;17.080;2022-08-19T23:24:11;23.39;77.20
69281;SHT31;56392;51.082;17.080;2022-08-19T23:29:15;23.42;77.06
69281;SHT31;56392;51.082;17.080;2022-08-19T23:34:35;23.30;77.22
69281;SHT31;56392;51.082;17.080;2022-08-19T23:39:38;23.12;77.91
69281;SHT31;56392;51.082;17.080;2022-08-19T23:44:44;23.11;77.92
69281;SHT31;56392;51.082;17.080;2022-08-19T23:49:47;23.09;77.87
69281;SHT31;56392;51.082;17.080;2022-08-19T23:54:49;23.20;77.60
69281;SHT31;56392;51.082;17.080;2022-08-19T23:59:54;23.06;77.27
